Aeroporto :
LOGIN :

Iscrizione | Disclaimer

   EN    FR    IT 

 










Sommario :    VFR   VFR Marginale   IFR   IFR Intensivo   IFR Molto Intensivo
Visibilità : 
Base nubi : 
>= 8 km
>= 3000ft
5 / 8 km
1000 / 3000 ft
1500m / 5 km
500 / 1000 ft
800 / 1500m
200 / 500 ft
< 800m
< 200 ft
Simboli :   Temporali  Nebbia  Neve Forte  Precipitazioni Forti  Vento > 20 kt
SIGMETs :   Varie  Temporali  Ghiacco  Turbolenza  Onda orograficha  Ceneri Vulcaniche






- Altitudine del aeroporto : 39 ft
- Codice IATA : ANR


EBAW - Anvers / Antwerpen Deurne

ULTIMO METAR :
  • 240720Z 30014KT 8000 -SHGS FEW022 SCT030 04/00 Q1012 NOSIG

METARs OBSOLETI :
  • 240650Z 31009KT 9999 FEW017 06/01 Q1012 NOSIG
  • 240620Z 30010KT 240V330 9999 VCSH SCT017 06/02 Q1012 NOSIG
  • 240550Z 29004KT 260V320 9999 FEW017 05/02 Q1012 NOSIG
  • 240520Z 32014KT 9999 -SHRA SCT017 04/01 Q1013
  • 240450Z 28007KT 9999 FEW018 05/01 Q1012
  • 240420Z AUTO 30008KT CAVOK 05/01 Q1012
  • 240350Z AUTO 27007KT 240V310 9999 // FEW020/// 05/02 Q1013
  • 240320Z AUTO 28008KT 9999 // SCT028/// OVC031/// 05/01 Q1013

TAF TAF EBAW
Valido dal 24 a 06 ore il 24 a 15 ore UTC


240510Z 2406/2415 31011KT 9999 SCT025TCU SCT045
PROB30
TEMPO 2406/2408 SHRA BKN012 SCT020TCU
TEMPO 2408/2415 33015G25KT 4000 SHRA BKN018CB
PROB40
TEMPO 2409/2415 33018G30KT 3500 SHRAGS SCT006 BKN014CB



MetMap, La meteo Aeronautica in un colpo d'occhio ! - Copyright ORBIFLY Dicembre 2007 - Disclaimer

ORBIFLY MET'MAP TEAM :

Programmazione e sviluppo : Alexandra Zaïnal
Concezione : Baudouin d'Aumeries
Supporto tecnico e logistico : Manuel Goepfert
Aiuto : Marc-Olivier Méhu
Aiuto per la traduzione : Arnaldo La Scala




FONTI E CREDITI :

   NOAA